Moody, TX (76557)

2:11 AM CST on February 10, 2016 (GMT -0600)
Pandemonium Farms | | Change Station
CLOSE
Current Station
Personal Weather Station
Location: Moody, TX
Elevation: 837 ft
Nearby Weather Stations

Elev 837 ft 31.29 °N, 97.31 °W | Updated 7 minutes ago

Clear
Clear
41.9 °F
Feels Like 42 °F
N
0.0
Wind Variable Wind from East

Today
High -- | Low -- °F
--% Chance of Precip.
Yesterday
High -- | Low -- °F
Precip. -- in
Pressure 30.40 in
Visibility 10.0 miles
Clouds Clear
Windchill 42 °F
Dew Point 21 °F
Humidity 43%
Rainfall 0.00 in
Snow Depth Not available.
7:15 AM 6:12 PM
Waxing Crescent, 4% visible
METAR KTPL 100751Z AUTO 00000KT 10SM CLR 06/M02 A3035 RMK AO2 SLP295 T00561017 $
Pressure 30.40 in
Visibility 10.0 miles
Clouds Clear
Windchill 42 °F
Dew Point 21 °F
Humidity 43%
Rainfall 0.00 in
Snow Depth Not available.
7:15 AM 6:12 PM
Waxing Crescent, 4% visible
METAR KTPL 100751Z AUTO 00000KT 10SM CLR 06/M02 A3035 RMK AO2 SLP295 T00561017 $

10-Day Weather Forecast

Almanac

Astronomy

Feb. 10, 2016 Rise Set
Actual Time
Civil Twilight
Nautical Twilight
Astronomical Twilight
Moon
Length of Visible Light
Length of Day
Tomorrow will be .
, % of the Moon is Illuminated

Today's Extremes

State Highs State Lows

Community

WunderPhotos

Upload Photos

1,891,826 photos uploaded!

WunderBlog® & News

Nearby

Air Quality

  Air Quality AQ Index Pollutant
Not available.

Snow Depth

Station Depth Elevation

Earthquake Activity

City Distance Mag. Time & Date
Minimum magnitude displayed is 2.5.

Coastal Water Temperatures

Place Temperature

Stations

Nearby Weather Stations

Station Location Temp. Windchill Dew Point Humidity Wind Precip. Elev Updated Type
                   

Watches & Warnings

There are currently no watches in effect.